sensor_id;sensor_type;location;lat;lon;timestamp;temperature;humidity
26707;DHT22;14319;49.422;10.934;2023-04-03T00:00:01;4.50;64.50
26707;DHT22;14319;49.422;10.934;2023-04-03T00:02:06;4.50;65.70
26707;DHT22;14319;49.422;10.934;2023-04-03T00:04:07;4.50;65.20
26707;DHT22;14319;49.422;10.934;2023-04-03T00:06:09;4.50;64.80
26707;DHT22;14319;49.422;10.934;2023-04-03T00:08:10;4.50;64.40
26707;DHT22;14319;49.422;10.934;2023-04-03T00:10:11;4.40;65.10
26707;DHT22;14319;49.422;10.934;2023-04-03T00:12:12;4.30;65.30
26707;DHT22;14319;49.422;10.934;2023-04-03T00:14:13;4.30;66.20
26707;DHT22;14319;49.422;10.934;2023-04-03T00:16:13;4.40;65.50
26707;DHT22;14319;49.422;10.934;2023-04-03T00:18:14;4.50;66.40
26707;DHT22;14319;49.422;10.934;2023-04-03T00:20:15;4.40;65.40
26707;DHT22;14319;49.422;10.934;2023-04-03T00:22:16;4.30;65.10
26707;DHT22;14319;49.422;10.934;2023-04-03T00:24:16;4.10;66.40
26707;DHT22;14319;49.422;10.934;2023-04-03T00:26:17;3.90;66.70
26707;DHT22;14319;49.422;10.934;2023-04-03T00:28:18;3.90;68.40
26707;DHT22;14319;49.422;10.934;2023-04-03T00:30:21;3.70;68.10
26707;DHT22;14319;49.422;10.934;2023-04-03T00:32:22;3.60;69.40
26707;DHT22;14319;49.422;10.934;2023-04-03T00:34:23;3.80;68.50
26707;DHT22;14319;49.422;10.934;2023-04-03T00:36:24;4.00;67.50
26707;DHT22;14319;49.422;10.934;2023-04-03T00:38:24;4.10;66.10
26707;DHT22;14319;49.422;10.934;2023-04-03T00:40:27;4.20;66.50
26707;DHT22;14319;49.422;10.934;2023-04-03T00:42:27;4.30;65.60
26707;DHT22;14319;49.422;10.934;2023-04-03T00:46:28;4.40;65.20
26707;DHT22;14319;49.422;10.934;2023-04-03T00:48:42;4.50;64.70
26707;DHT22;14319;49.422;10.934;2023-04-03T00:50:44;4.10;64.30
26707;DHT22;14319;49.422;10.934;2023-04-03T00:52:45;4.20;64.50
26707;DHT22;14319;49.422;10.934;2023-04-03T00:54:50;4.20;64.50
26707;DHT22;14319;49.422;10.934;2023-04-03T00:56:53;4.20;64.20
26707;DHT22;14319;49.422;10.934;2023-04-03T00:59:06;4.20;65.10
26707;DHT22;14319;49.422;10.934;2023-04-03T01:01:13;4.20;65.40
26707;DHT22;14319;49.422;10.934;2023-04-03T01:03:15;4.20;65.90
26707;DHT22;14319;49.422;10.934;2023-04-03T01:05:16;4.10;65.60
26707;DHT22;14319;49.422;10.934;2023-04-03T01:07:22;4.00;65.90
26707;DHT22;14319;49.422;10.934;2023-04-03T01:09:23;4.10;65.80
26707;DHT22;14319;49.422;10.934;2023-04-03T01:11:24;4.20;65.30
26707;DHT22;14319;49.422;10.934;2023-04-03T01:13:28;4.20;65.40
26707;DHT22;14319;49.422;10.934;2023-04-03T01:15:29;4.30;64.30
26707;DHT22;14319;49.422;10.934;2023-04-03T01:17:39;4.20;63.80
26707;DHT22;14319;49.422;10.934;2023-04-03T01:19:45;4.20;64.40
26707;DHT22;14319;49.422;10.934;2023-04-03T01:22:13;4.20;64.10
26707;DHT22;14319;49.422;10.934;2023-04-03T01:26:33;4.20;64.20
26707;DHT22;14319;49.422;10.934;2023-04-03T01:28:36;4.10;64.60
26707;DHT22;14319;49.422;10.934;2023-04-03T01:30:53;4.20;64.10
26707;DHT22;14319;49.422;10.934;2023-04-03T01:32:56;4.20;63.50
26707;DHT22;14319;49.422;10.934;2023-04-03T01:34:57;4.20;63.90
26707;DHT22;14319;49.422;10.934;2023-04-03T01:36:58;4.20;64.60
26707;DHT22;14319;49.422;10.934;2023-04-03T01:38:59;4.20;65.10
26707;DHT22;14319;49.422;10.934;2023-04-03T01:41:00;4.10;65.00
26707;DHT22;14319;49.422;10.934;2023-04-03T01:43:01;4.00;65.70
26707;DHT22;14319;49.422;10.934;2023-04-03T01:45:02;4.00;65.70
26707;DHT22;14319;49.422;10.934;2023-04-03T01:47:06;4.00;66.00
26707;DHT22;14319;49.422;10.934;2023-04-03T01:49:06;3.90;65.40
26707;DHT22;14319;49.422;10.934;2023-04-03T01:51:07;4.10;64.50
26707;DHT22;14319;49.422;10.934;2023-04-03T01:53:08;4.10;63.60
26707;DHT22;14319;49.422;10.934;2023-04-03T01:55:08;4.10;63.40
26707;DHT22;14319;49.422;10.934;2023-04-03T01:57:09;4.10;64.30
26707;DHT22;14319;49.422;10.934;2023-04-03T01:59:10;4.10;65.10
26707;DHT22;14319;49.422;10.934;2023-04-03T02:01:11;4.00;64.60
26707;DHT22;14319;49.422;10.934;2023-04-03T02:03:12;3.90;64.60
26707;DHT22;14319;49.422;10.934;2023-04-03T02:05:12;3.90;64.40
26707;DHT22;14319;49.422;10.934;2023-04-03T02:07:13;3.90;64.70
26707;DHT22;14319;49.422;10.934;2023-04-03T02:09:14;3.50;66.60
26707;DHT22;14319;49.422;10.934;2023-04-03T02:11:15;3.20;68.50
26707;DHT22;14319;49.422;10.934;2023-04-03T02:13:17;2.90;69.00
26707;DHT22;14319;49.422;10.934;2023-04-03T02:15:19;2.90;70.50
26707;DHT22;14319;49.422;10.934;2023-04-03T02:17:19;2.80;70.10
26707;DHT22;14319;49.422;10.934;2023-04-03T02:19:20;2.90;70.60
26707;DHT22;14319;49.422;10.934;2023-04-03T02:21:20;3.00;70.70
26707;DHT22;14319;49.422;10.934;2023-04-03T02:23:22;2.80;70.20
26707;DHT22;14319;49.422;10.934;2023-04-03T02:25:24;2.70;71.40
26707;DHT22;14319;49.422;10.934;2023-04-03T02:27:25;2.50;71.20
26707;DHT22;14319;49.422;10.934;2023-04-03T02:29:25;2.50;72.70
26707;DHT22;14319;49.422;10.934;2023-04-03T02:31:27;2.50;72.30
26707;DHT22;14319;49.422;10.934;2023-04-03T02:33:28;2.50;72.10
26707;DHT22;14319;49.422;10.934;2023-04-03T02:35:28;2.40;70.90
26707;DHT22;14319;49.422;10.934;2023-04-03T02:37:31;2.40;72.00
26707;DHT22;14319;49.422;10.934;2023-04-03T02:39:34;2.40;72.60
26707;DHT22;14319;49.422;10.934;2023-04-03T02:41:35;2.60;71.60
26707;DHT22;14319;49.422;10.934;2023-04-03T02:43:38;2.40;71.90
26707;DHT22;14319;49.422;10.934;2023-04-03T02:45:39;2.40;72.50
26707;DHT22;14319;49.422;10.934;2023-04-03T02:47:41;2.40;71.50
26707;DHT22;14319;49.422;10.934;2023-04-03T02:49:41;2.30;72.50
26707;DHT22;14319;49.422;10.934;2023-04-03T02:51:44;2.30;72.30
26707;DHT22;14319;49.422;10.934;2023-04-03T02:53:46;2.30;72.90
26707;DHT22;14319;49.422;10.934;2023-04-03T02:55:51;2.30;73.20
26707;DHT22;14319;49.422;10.934;2023-04-03T02:57:52;2.30;73.30
26707;DHT22;14319;49.422;10.934;2023-04-03T02:59:52;2.40;73.10
26707;DHT22;14319;49.422;10.934;2023-04-03T03:01:53;2.50;72.30
26707;DHT22;14319;49.422;10.934;2023-04-03T03:03:54;2.50;72.20
26707;DHT22;14319;49.422;10.934;2023-04-03T03:06:05;2.80;71.90
26707;DHT22;14319;49.422;10.934;2023-04-03T03:08:07;2.90;71.60
26707;DHT22;14319;49.422;10.934;2023-04-03T03:10:08;2.70;71.70
26707;DHT22;14319;49.422;10.934;2023-04-03T03:12:09;2.60;72.40
26707;DHT22;14319;49.422;10.934;2023-04-03T03:14:10;2.50;73.10
26707;DHT22;14319;49.422;10.934;2023-04-03T03:16:10;2.30;73.20
26707;DHT22;14319;49.422;10.934;2023-04-03T03:18:11;2.20;73.80
26707;DHT22;14319;49.422;10.934;2023-04-03T03:20:12;2.20;74.00
26707;DHT22;14319;49.422;10.934;2023-04-03T03:22:16;2.40;74.00
26707;DHT22;14319;49.422;10.934;2023-04-03T03:24:17;2.20;74.10
26707;DHT22;14319;49.422;10.934;2023-04-03T03:26:18;2.20;74.30
26707;DHT22;14319;49.422;10.934;2023-04-03T03:28:18;2.10;74.50
26707;DHT22;14319;49.422;10.934;2023-04-03T03:30:19;2.20;74.70
26707;DHT22;14319;49.422;10.934;2023-04-03T03:32:20;2.30;74.80
26707;DHT22;14319;49.422;10.934;2023-04-03T03:34:21;2.60;74.10
26707;DHT22;14319;49.422;10.934;2023-04-03T03:36:21;2.70;73.40
26707;DHT22;14319;49.422;10.934;2023-04-03T03:38:23;2.90;73.10
26707;DHT22;14319;49.422;10.934;2023-04-03T03:40:24;2.80;73.50
26707;DHT22;14319;49.422;10.934;2023-04-03T03:42:24;2.70;74.50
26707;DHT22;14319;49.422;10.934;2023-04-03T03:44:25;2.50;74.90
26707;DHT22;14319;49.422;10.934;2023-04-03T03:46:27;2.40;74.80
26707;DHT22;14319;49.422;10.934;2023-04-03T03:48:28;2.30;75.20
26707;DHT22;14319;49.422;10.934;2023-04-03T03:50:29;2.40;75.30
26707;DHT22;14319;49.422;10.934;2023-04-03T03:52:29;2.40;75.20
26707;DHT22;14319;49.422;10.934;2023-04-03T03:54:30;2.50;74.70
26707;DHT22;14319;49.422;10.934;2023-04-03T03:56:31;2.50;75.20
26707;DHT22;14319;49.422;10.934;2023-04-03T03:58:33;2.60;75.90
26707;DHT22;14319;49.422;10.934;2023-04-03T04:00:34;2.70;75.90
26707;DHT22;14319;49.422;10.934;2023-04-03T04:02:35;2.80;74.60
26707;DHT22;14319;49.422;10.934;2023-04-03T04:04:36;2.80;74.50
26707;DHT22;14319;49.422;10.934;2023-04-03T04:06:37;2.90;74.30
26707;DHT22;14319;49.422;10.934;2023-04-03T04:08:41;3.00;75.40
26707;DHT22;14319;49.422;10.934;2023-04-03T04:10:45;3.10;75.10
26707;DHT22;14319;49.422;10.934;2023-04-03T04:12:47;3.10;75.00
26707;DHT22;14319;49.422;10.934;2023-04-03T04:14:50;3.10;74.60
26707;DHT22;14319;49.422;10.934;2023-04-03T04:16:50;3.10;74.50
26707;DHT22;14319;49.422;10.934;2023-04-03T04:18:56;3.20;74.20
26707;DHT22;14319;49.422;10.934;2023-04-03T04:20:58;3.30;74.00
26707;DHT22;14319;49.422;10.934;2023-04-03T04:22:59;3.30;74.20
26707;DHT22;14319;49.422;10.934;2023-04-03T04:25:00;3.30;74.50
26707;DHT22;14319;49.422;10.934;2023-04-03T04:27:01;3.20;74.60
26707;DHT22;14319;49.422;10.934;2023-04-03T04:29:01;3.20;74.40
26707;DHT22;14319;49.422;10.934;2023-04-03T04:31:05;3.20;74.50
26707;DHT22;14319;49.422;10.934;2023-04-03T04:33:06;3.40;74.10
26707;DHT22;14319;49.422;10.934;2023-04-03T04:35:08;3.40;74.00
26707;DHT22;14319;49.422;10.934;2023-04-03T04:37:13;3.40;74.10
26707;DHT22;14319;49.422;10.934;2023-04-03T04:39:14;3.30;73.90
26707;DHT22;14319;49.422;10.934;2023-04-03T04:41:15;3.20;74.90
26707;DHT22;14319;49.422;10.934;2023-04-03T04:43:17;3.20;75.00
26707;DHT22;14319;49.422;10.934;2023-04-03T04:45:20;3.40;74.30
26707;DHT22;14319;49.422;10.934;2023-04-03T04:47:22;3.30;75.00
26707;DHT22;14319;49.422;10.934;2023-04-03T04:49:23;3.20;74.80
26707;DHT22;14319;49.422;10.934;2023-04-03T04:51:24;3.10;75.30
26707;DHT22;14319;49.422;10.934;2023-04-03T04:53:25;2.90;75.70
26707;DHT22;14319;49.422;10.934;2023-04-03T04:55:26;2.80;76.30
26707;DHT22;14319;49.422;10.934;2023-04-03T04:57:27;2.90;76.50
26707;DHT22;14319;49.422;10.934;2023-04-03T04:59:28;3.00;75.50
26707;DHT22;14319;49.422;10.934;2023-04-03T05:01:31;3.10;75.40
26707;DHT22;14319;49.422;10.934;2023-04-03T05:03:41;3.10;75.30
26707;DHT22;14319;49.422;10.934;2023-04-03T05:05:41;3.20;76.00
26707;DHT22;14319;49.422;10.934;2023-04-03T05:07:42;2.80;76.30
26707;DHT22;14319;49.422;10.934;2023-04-03T05:09:43;2.80;76.50
26707;DHT22;14319;49.422;10.934;2023-04-03T05:11:44;2.80;76.50
26707;DHT22;14319;49.422;10.934;2023-04-03T05:13:48;2.90;76.00
26707;DHT22;14319;49.422;10.934;2023-04-03T05:15:49;2.90;75.90
26707;DHT22;14319;49.422;10.934;2023-04-03T05:17:50;2.80;76.10
26707;DHT22;14319;49.422;10.934;2023-04-03T05:19:51;2.80;76.00
26707;DHT22;14319;49.422;10.934;2023-04-03T05:21:54;2.90;76.00
26707;DHT22;14319;49.422;10.934;2023-04-03T05:23:55;3.00;75.70
26707;DHT22;14319;49.422;10.934;2023-04-03T05:25:56;3.00;75.50
26707;DHT22;14319;49.422;10.934;2023-04-03T05:27:57;3.00;75.70
26707;DHT22;14319;49.422;10.934;2023-04-03T05:29:58;2.90;75.90
26707;DHT22;14319;49.422;10.934;2023-04-03T05:32:00;3.10;75.70
26707;DHT22;14319;49.422;10.934;2023-04-03T05:34:01;3.10;75.20
26707;DHT22;14319;49.422;10.934;2023-04-03T05:36:05;3.20;74.90
26707;DHT22;14319;49.422;10.934;2023-04-03T05:38:08;3.10;75.50
26707;DHT22;14319;49.422;10.934;2023-04-03T05:40:09;3.10;75.60
26707;DHT22;14319;49.422;10.934;2023-04-03T05:42:11;3.10;75.90
26707;DHT22;14319;49.422;10.934;2023-04-03T05:44:12;3.10;75.20
26707;DHT22;14319;49.422;10.934;2023-04-03T05:46:17;3.20;75.10
26707;DHT22;14319;49.422;10.934;2023-04-03T05:48:20;3.30;76.10
26707;DHT22;14319;49.422;10.934;2023-04-03T05:50:21;3.20;75.80
26707;DHT22;14319;49.422;10.934;2023-04-03T05:52:29;3.20;75.60
26707;DHT22;14319;49.422;10.934;2023-04-03T05:54:31;3.20;75.30
26707;DHT22;14319;49.422;10.934;2023-04-03T05:56:39;3.30;74.80
26707;DHT22;14319;49.422;10.934;2023-04-03T05:58:39;3.30;74.30
26707;DHT22;14319;49.422;10.934;2023-04-03T06:00:40;3.40;74.40
26707;DHT22;14319;49.422;10.934;2023-04-03T06:02:41;3.30;74.70
26707;DHT22;14319;49.422;10.934;2023-04-03T06:04:46;3.30;74.30
26707;DHT22;14319;49.422;10.934;2023-04-03T06:08:54;3.40;73.90
26707;DHT22;14319;49.422;10.934;2023-04-03T06:10:54;3.40;73.90
26707;DHT22;14319;49.422;10.934;2023-04-03T06:12:55;3.50;74.10
26707;DHT22;14319;49.422;10.934;2023-04-03T06:14:56;3.50;73.40
26707;DHT22;14319;49.422;10.934;2023-04-03T06:16:57;3.50;72.90
26707;DHT22;14319;49.422;10.934;2023-04-03T06:18:58;3.50;72.30
26707;DHT22;14319;49.422;10.934;2023-04-03T06:20:59;3.50;73.10
26707;DHT22;14319;49.422;10.934;2023-04-03T06:23:01;3.50;72.60
26707;DHT22;14319;49.422;10.934;2023-04-03T06:25:02;3.50;73.00
26707;DHT22;14319;49.422;10.934;2023-04-03T06:27:03;3.60;72.30
26707;DHT22;14319;49.422;10.934;2023-04-03T06:29:03;3.40;73.50
26707;DHT22;14319;49.422;10.934;2023-04-03T06:31:04;3.60;73.40
26707;DHT22;14319;49.422;10.934;2023-04-03T06:33:05;3.50;72.90
26707;DHT22;14319;49.422;10.934;2023-04-03T06:35:06;3.60;72.40
26707;DHT22;14319;49.422;10.934;2023-04-03T06:37:15;3.60;72.50
26707;DHT22;14319;49.422;10.934;2023-04-03T06:39:19;3.70;72.60
26707;DHT22;14319;49.422;10.934;2023-04-03T06:41:25;3.70;71.30
26707;DHT22;14319;49.422;10.934;2023-04-03T06:43:27;3.70;72.10
26707;DHT22;14319;49.422;10.934;2023-04-03T06:45:27;3.80;71.80
26707;DHT22;14319;49.422;10.934;2023-04-03T06:47:28;3.80;71.40
26707;DHT22;14319;49.422;10.934;2023-04-03T06:49:28;3.90;71.20
26707;DHT22;14319;49.422;10.934;2023-04-03T06:51:30;3.90;71.60
26707;DHT22;14319;49.422;10.934;2023-04-03T06:53:30;3.90;71.50
26707;DHT22;14319;49.422;10.934;2023-04-03T06:55:31;3.90;70.60
26707;DHT22;14319;49.422;10.934;2023-04-03T06:57:32;3.90;70.30
26707;DHT22;14319;49.422;10.934;2023-04-03T06:59:32;4.00;70.80
26707;DHT22;14319;49.422;10.934;2023-04-03T07:01:33;4.00;70.30
26707;DHT22;14319;49.422;10.934;2023-04-03T07:03:34;3.90;70.10
26707;DHT22;14319;49.422;10.934;2023-04-03T07:05:36;3.90;70.00
26707;DHT22;14319;49.422;10.934;2023-04-03T07:07:36;3.90;71.20
26707;DHT22;14319;49.422;10.934;2023-04-03T07:09:38;4.00;71.10
26707;DHT22;14319;49.422;10.934;2023-04-03T07:11:38;3.90;71.00
26707;DHT22;14319;49.422;10.934;2023-04-03T07:13:39;3.90;70.60
26707;DHT22;14319;49.422;10.934;2023-04-03T07:15:40;4.00;69.60
26707;DHT22;14319;49.422;10.934;2023-04-03T07:17:41;4.00;70.60
26707;DHT22;14319;49.422;10.934;2023-04-03T07:19:42;4.10;69.10
26707;DHT22;14319;49.422;10.934;2023-04-03T07:21:43;4.30;69.00
26707;DHT22;14319;49.422;10.934;2023-04-03T07:23:43;4.10;68.00
26707;DHT22;14319;49.422;10.934;2023-04-03T07:25:45;4.10;69.20
26707;DHT22;14319;49.422;10.934;2023-04-03T07:27:46;4.00;69.60
26707;DHT22;14319;49.422;10.934;2023-04-03T07:29:47;4.10;69.50
26707;DHT22;14319;49.422;10.934;2023-04-03T07:31:51;4.10;68.90
26707;DHT22;14319;49.422;10.934;2023-04-03T07:33:52;4.30;69.20
26707;DHT22;14319;49.422;10.934;2023-04-03T07:35:53;4.30;69.20
26707;DHT22;14319;49.422;10.934;2023-04-03T07:37:54;4.30;68.70
26707;DHT22;14319;49.422;10.934;2023-04-03T07:39:54;4.50;67.50
26707;DHT22;14319;49.422;10.934;2023-04-03T07:41:55;4.50;67.30
26707;DHT22;14319;49.422;10.934;2023-04-03T07:43:56;4.60;66.60
26707;DHT22;14319;49.422;10.934;2023-04-03T07:45:57;4.40;66.00
26707;DHT22;14319;49.422;10.934;2023-04-03T07:47:57;4.40;67.30
26707;DHT22;14319;49.422;10.934;2023-04-03T07:49:58;4.40;69.00
26707;DHT22;14319;49.422;10.934;2023-04-03T07:51:59;4.40;66.90
26707;DHT22;14319;49.422;10.934;2023-04-03T07:54:00;4.40;67.30
26707;DHT22;14319;49.422;10.934;2023-04-03T07:56:01;4.40;67.00
26707;DHT22;14319;49.422;10.934;2023-04-03T07:58:03;4.50;66.80
26707;DHT22;14319;49.422;10.934;2023-04-03T08:00:04;4.40;67.00
26707;DHT22;14319;49.422;10.934;2023-04-03T08:02:12;4.40;67.70
26707;DHT22;14319;49.422;10.934;2023-04-03T08:04:13;4.40;67.20
26707;DHT22;14319;49.422;10.934;2023-04-03T08:06:13;4.50;67.50
26707;DHT22;14319;49.422;10.934;2023-04-03T08:08:18;4.50;66.40
26707;DHT22;14319;49.422;10.934;2023-04-03T08:10:19;4.50;65.10
26707;DHT22;14319;49.422;10.934;2023-04-03T08:12:19;4.50;67.00
26707;DHT22;14319;49.422;10.934;2023-04-03T08:14:20;4.60;66.70
26707;DHT22;14319;49.422;10.934;2023-04-03T08:16:23;4.80;68.10
26707;DHT22;14319;49.422;10.934;2023-04-03T08:18:26;5.00;67.00
26707;DHT22;14319;49.422;10.934;2023-04-03T08:20:27;5.10;67.30
26707;DHT22;14319;49.422;10.934;2023-04-03T08:22:28;5.30;64.70
26707;DHT22;14319;49.422;10.934;2023-04-03T08:24:30;5.50;64.70
26707;DHT22;14319;49.422;10.934;2023-04-03T08:26:30;5.40;62.60
26707;DHT22;14319;49.422;10.934;2023-04-03T08:28:31;5.30;64.20
26707;DHT22;14319;49.422;10.934;2023-04-03T08:30:33;5.20;63.60
26707;DHT22;14319;49.422;10.934;2023-04-03T08:32:34;5.20;64.70
26707;DHT22;14319;49.422;10.934;2023-04-03T08:34:36;5.30;66.00
26707;DHT22;14319;49.422;10.934;2023-04-03T08:36:37;5.20;62.40
26707;DHT22;14319;49.422;10.934;2023-04-03T08:38:37;5.20;63.70
26707;DHT22;14319;49.422;10.934;2023-04-03T08:40:39;5.10;63.30
26707;DHT22;14319;49.422;10.934;2023-04-03T08:45:09;4.90;63.00
26707;DHT22;14319;49.422;10.934;2023-04-03T08:49:30;5.00;62.60
26707;DHT22;14319;49.422;10.934;2023-04-03T08:51:31;5.00;62.20
26707;DHT22;14319;49.422;10.934;2023-04-03T08:53:35;5.10;61.80
26707;DHT22;14319;49.422;10.934;2023-04-03T08:55:50;5.20;61.90
26707;DHT22;14319;49.422;10.934;2023-04-03T08:58:01;5.10;61.50
26707;DHT22;14319;49.422;10.934;2023-04-03T09:04:31;5.10;63.90
26707;DHT22;14319;49.422;10.934;2023-04-03T09:06:33;5.20;60.90
26707;DHT22;14319;49.422;10.934;2023-04-03T09:08:58;5.30;61.50
26707;DHT22;14319;49.422;10.934;2023-04-03T09:11:24;5.40;60.00
26707;DHT22;14319;49.422;10.934;2023-04-03T09:13:39;5.40;58.80
26707;DHT22;14319;49.422;10.934;2023-04-03T09:15:43;5.40;57.60
26707;DHT22;14319;49.422;10.934;2023-04-03T09:20:00;5.40;58.80
26707;DHT22;14319;49.422;10.934;2023-04-03T09:22:25;5.10;58.90
26707;DHT22;14319;49.422;10.934;2023-04-03T09:24:26;5.30;58.30
26707;DHT22;14319;49.422;10.934;2023-04-03T09:29:00;5.60;57.90
26707;DHT22;14319;49.422;10.934;2023-04-03T09:31:05;5.70;58.60
26707;DHT22;14319;49.422;10.934;2023-04-03T09:33:12;5.80;55.10
26707;DHT22;14319;49.422;10.934;2023-04-03T09:35:32;5.80;57.30
26707;DHT22;14319;49.422;10.934;2023-04-03T09:39:51;5.60;55.70
26707;DHT22;14319;49.422;10.934;2023-04-03T09:41:58;5.60;54.70
26707;DHT22;14319;49.422;10.934;2023-04-03T09:44:00;5.50;52.80
26707;DHT22;14319;49.422;10.934;2023-04-03T09:46:33;5.40;53.60
26707;DHT22;14319;49.422;10.934;2023-04-03T09:48:35;5.40;55.90
26707;DHT22;14319;49.422;10.934;2023-04-03T09:50:36;5.50;57.00
26707;DHT22;14319;49.422;10.934;2023-04-03T09:52:37;5.60;56.10
26707;DHT22;14319;49.422;10.934;2023-04-03T09:54:38;5.60;54.10
26707;DHT22;14319;49.422;10.934;2023-04-03T09:56:41;5.80;53.30
26707;DHT22;14319;49.422;10.934;2023-04-03T09:59:13;6.00;55.30
26707;DHT22;14319;49.422;10.934;2023-04-03T10:01:30;6.10;51.50
26707;DHT22;14319;49.422;10.934;2023-04-03T10:03:34;6.20;53.10
26707;DHT22;14319;49.422;10.934;2023-04-03T10:05:41;6.00;51.80
26707;DHT22;14319;49.422;10.934;2023-04-03T10:07:41;6.10;53.00
26707;DHT22;14319;49.422;10.934;2023-04-03T10:09:55;6.30;53.10
26707;DHT22;14319;49.422;10.934;2023-04-03T10:12:19;6.20;52.60
26707;DHT22;14319;49.422;10.934;2023-04-03T10:14:20;6.30;54.00
26707;DHT22;14319;49.422;10.934;2023-04-03T10:16:25;5.80;55.50
26707;DHT22;14319;49.422;10.934;2023-04-03T10:18:32;5.90;56.00
26707;DHT22;14319;49.422;10.934;2023-04-03T10:20:43;5.30;57.50
26707;DHT22;14319;49.422;10.934;2023-04-03T10:30:01;4.90;58.00
26707;DHT22;14319;49.422;10.934;2023-04-03T10:32:22;4.60;57.90
26707;DHT22;14319;49.422;10.934;2023-04-03T10:34:29;4.80;56.30
26707;DHT22;14319;49.422;10.934;2023-04-03T10:50:15;6.10;49.30
26707;DHT22;14319;49.422;10.934;2023-04-03T10:52:46;6.40;49.90
26707;DHT22;14319;49.422;10.934;2023-04-03T10:55:02;6.70;49.80
26707;DHT22;14319;49.422;10.934;2023-04-03T10:57:10;6.70;48.50
26707;DHT22;14319;49.422;10.934;2023-04-03T10:59:37;7.00;48.30
26707;DHT22;14319;49.422;10.934;2023-04-03T11:01:41;6.90;47.00
26707;DHT22;14319;49.422;10.934;2023-04-03T11:03:50;7.00;47.50
26707;DHT22;14319;49.422;10.934;2023-04-03T11:05:53;7.10;49.10
26707;DHT22;14319;49.422;10.934;2023-04-03T11:07:56;6.80;49.60
26707;DHT22;14319;49.422;10.934;2023-04-03T11:10:03;6.60;49.10
26707;DHT22;14319;49.422;10.934;2023-04-03T11:14:28;6.40;52.50
26707;DHT22;14319;49.422;10.934;2023-04-03T11:16:34;6.30;51.90
26707;DHT22;14319;49.422;10.934;2023-04-03T11:18:49;6.00;50.00
26707;DHT22;14319;49.422;10.934;2023-04-03T11:21:00;5.50;52.40
26707;DHT22;14319;49.422;10.934;2023-04-03T11:23:26;5.50;52.70
26707;DHT22;14319;49.422;10.934;2023-04-03T11:25:31;5.80;54.70
26707;DHT22;14319;49.422;10.934;2023-04-03T11:29:55;6.10;49.30
26707;DHT22;14319;49.422;10.934;2023-04-03T11:34:22;5.90;49.50
26707;DHT22;14319;49.422;10.934;2023-04-03T11:36:32;6.10;49.60
26707;DHT22;14319;49.422;10.934;2023-04-03T11:38:37;6.30;48.60
26707;DHT22;14319;49.422;10.934;2023-04-03T11:40:39;6.30;49.80
26707;DHT22;14319;49.422;10.934;2023-04-03T11:42:42;6.20;48.50
26707;DHT22;14319;49.422;10.934;2023-04-03T11:44:46;6.50;48.40
26707;DHT22;14319;49.422;10.934;2023-04-03T11:46:58;6.70;45.90
26707;DHT22;14319;49.422;10.934;2023-04-03T11:48:58;6.90;47.90
26707;DHT22;14319;49.422;10.934;2023-04-03T11:57:43;6.60;48.80
26707;DHT22;14319;49.422;10.934;2023-04-03T11:59:44;6.40;48.60
26707;DHT22;14319;49.422;10.934;2023-04-03T12:01:49;5.60;52.10
26707;DHT22;14319;49.422;10.934;2023-04-03T12:05:57;5.70;54.40
26707;DHT22;14319;49.422;10.934;2023-04-03T12:10:39;6.20;50.30
26707;DHT22;14319;49.422;10.934;2023-04-03T12:12:40;6.40;49.60
26707;DHT22;14319;49.422;10.934;2023-04-03T12:14:41;6.30;49.10
26707;DHT22;14319;49.422;10.934;2023-04-03T12:16:45;6.50;50.00
26707;DHT22;14319;49.422;10.934;2023-04-03T12:23:25;6.60;51.20
26707;DHT22;14319;49.422;10.934;2023-04-03T12:25:47;6.70;47.60
26707;DHT22;14319;49.422;10.934;2023-04-03T12:40:58;7.40;47.80
26707;DHT22;14319;49.422;10.934;2023-04-03T12:45:24;7.30;47.50
26707;DHT22;14319;49.422;10.934;2023-04-03T12:47:29;7.20;49.60
26707;DHT22;14319;49.422;10.934;2023-04-03T12:49:37;6.80;46.90
26707;DHT22;14319;49.422;10.934;2023-04-03T12:51:41;6.70;49.10
26707;DHT22;14319;49.422;10.934;2023-04-03T12:53:42;6.70;50.80
26707;DHT22;14319;49.422;10.934;2023-04-03T12:55:44;6.30;49.80
26707;DHT22;14319;49.422;10.934;2023-04-03T12:57:44;6.00;53.30
26707;DHT22;14319;49.422;10.934;2023-04-03T12:59:46;6.20;52.40
26707;DHT22;14319;49.422;10.934;2023-04-03T13:01:55;5.90;50.40
26707;DHT22;14319;49.422;10.934;2023-04-03T13:03:57;6.00;50.50
26707;DHT22;14319;49.422;10.934;2023-04-03T13:06:02;6.20;52.90
26707;DHT22;14319;49.422;10.934;2023-04-03T13:08:08;6.50;49.30
26707;DHT22;14319;49.422;10.934;2023-04-03T13:12:13;6.80;50.10
26707;DHT22;14319;49.422;10.934;2023-04-03T13:20:48;6.60;51.70
26707;DHT22;14319;49.422;10.934;2023-04-03T13:24:58;6.70;50.50
26707;DHT22;14319;49.422;10.934;2023-04-03T13:27:00;7.10;49.90
26707;DHT22;14319;49.422;10.934;2023-04-03T13:29:07;7.30;48.40
26707;DHT22;14319;49.422;10.934;2023-04-03T13:33:26;7.60;45.20
26707;DHT22;14319;49.422;10.934;2023-04-03T13:35:35;7.60;43.70
26707;DHT22;14319;49.422;10.934;2023-04-03T13:37:36;7.40;44.90
26707;DHT22;14319;49.422;10.934;2023-04-03T13:39:38;7.10;45.90
26707;DHT22;14319;49.422;10.934;2023-04-03T13:41:42;7.30;47.90
26707;DHT22;14319;49.422;10.934;2023-04-03T13:43:43;7.50;44.90
26707;DHT22;14319;49.422;10.934;2023-04-03T13:48:18;7.10;46.00
26707;DHT22;14319;49.422;10.934;2023-04-03T13:50:24;7.10;46.20
26707;DHT22;14319;49.422;10.934;2023-04-03T13:52:30;7.00;45.70
26707;DHT22;14319;49.422;10.934;2023-04-03T13:54:37;6.90;47.90
26707;DHT22;14319;49.422;10.934;2023-04-03T13:56:40;7.10;48.90
26707;DHT22;14319;49.422;10.934;2023-04-03T14:05:19;7.30;50.40
26707;DHT22;14319;49.422;10.934;2023-04-03T14:07:22;6.80;48.80
26707;DHT22;14319;49.422;10.934;2023-04-03T14:09:25;6.40;49.00
26707;DHT22;14319;49.422;10.934;2023-04-03T14:11:29;6.60;48.90
26707;DHT22;14319;49.422;10.934;2023-04-03T14:13:31;6.70;48.50
26707;DHT22;14319;49.422;10.934;2023-04-03T14:15:32;6.80;48.00
26707;DHT22;14319;49.422;10.934;2023-04-03T14:17:33;7.00;50.30
26707;DHT22;14319;49.422;10.934;2023-04-03T14:19:35;7.30;50.30
26707;DHT22;14319;49.422;10.934;2023-04-03T14:21:36;7.20;49.00
26707;DHT22;14319;49.422;10.934;2023-04-03T14:23:36;7.60;46.50
26707;DHT22;14319;49.422;10.934;2023-04-03T14:25:38;7.30;49.30
26707;DHT22;14319;49.422;10.934;2023-04-03T14:27:42;6.80;49.10
26707;DHT22;14319;49.422;10.934;2023-04-03T14:29:43;6.70;51.00
26707;DHT22;14319;49.422;10.934;2023-04-03T14:31:45;6.90;48.00
26707;DHT22;14319;49.422;10.934;2023-04-03T14:33:47;6.90;46.80
26707;DHT22;14319;49.422;10.934;2023-04-03T14:35:48;6.90;46.60
26707;DHT22;14319;49.422;10.934;2023-04-03T14:37:49;6.60;49.10
26707;DHT22;14319;49.422;10.934;2023-04-03T14:39:52;6.50;49.20
26707;DHT22;14319;49.422;10.934;2023-04-03T14:41:53;6.40;51.10